Time;durP1;ratioP1;P1;durP2;ratioP2;P2;SDS_P1;SDS_P2;PMS_P1;PMS_P2;Temp;Humidity;BMP_temperature;BMP_pressure;BME280_temperature;BME280_humidity;BME280_pressure;Samples;Min_cycle;Max_cycle;Signal;HPM_P1;HPM_P2
2021/01/26 00:00:47;;;;;;;55.47;31.00;;;1.40;1.00;;;;;;5116166;28;20270;-60
2021/01/26 00:03:13;;;;;;;55.17;32.10;;;1.40;1.00;;;;;;5116096;28;20703;-60
2021/01/26 00:05:38;;;;;;;44.60;27.37;;;1.40;1.00;;;;;;5116002;28;20186;-60
2021/01/26 00:08:04;;;;;;;40.60;23.67;;;1.40;1.00;;;;;;5115897;28;20204;-60
2021/01/26 00:10:30;;;;;;;36.97;20.73;;;1.30;1.00;;;;;;5115926;28;20209;-60
2021/01/26 00:12:56;;;;;;;39.13;22.17;;;1.30;1.00;;;;;;5115739;28;20467;-60
2021/01/26 00:15:22;;;;;;;41.30;22.03;;;1.30;1.00;;;;;;5115808;28;20185;-61
2021/01/26 00:17:48;;;;;;;33.78;22.25;;;1.30;1.00;;;;;;5114768;28;20705;-61
2021/01/26 00:20:15;;;;;;;35.88;21.58;;;1.20;1.00;;;;;;5115642;28;20496;-60
2021/01/26 00:22:42;;;;;;;41.97;24.38;;;1.40;1.00;;;;;;5115570;27;20183;-60
2021/01/26 00:25:12;;;;;;;34.15;21.77;;;1.40;1.00;;;;;;5115401;27;20205;-62
2021/01/26 00:27:38;;;;;;;29.30;19.80;;;1.30;1.00;;;;;;5115925;28;20699;-61
2021/01/26 00:30:12;;;;;;;35.47;22.23;;;1.30;1.00;;;;;;5115498;28;20207;-62
2021/01/26 00:32:38;;;;;;;34.13;21.85;;;1.20;1.00;;;;;;5115488;28;20211;-62
2021/01/26 00:35:04;;;;;;;39.13;23.20;;;1.30;1.00;;;;;;5115231;28;20266;-62
2021/01/26 00:37:29;;;;;;;38.53;22.73;;;1.00;1.00;;;;;;5115455;28;20203;-62
2021/01/26 00:39:55;;;;;;;38.07;23.70;;;1.00;1.00;;;;;;5115348;28;20417;-62
2021/01/26 00:42:21;;;;;;;34.70;22.47;;;1.00;1.00;;;;;;5115295;28;20180;-62
2021/01/26 00:44:47;;;;;;;35.83;24.25;;;0.90;1.00;;;;;;5114985;28;20171;-61
2021/01/26 00:47:13;;;;;;;34.20;21.20;;;0.90;1.00;;;;;;5114445;28;20190;-62
2021/01/26 00:49:38;;;;;;;36.73;23.67;;;0.80;1.00;;;;;;5115108;28;20183;-62
2021/01/26 00:52:04;;;;;;;38.50;23.83;;;0.80;1.00;;;;;;5115063;28;20191;-61
2021/01/26 00:54:29;;;;;;;32.50;21.27;;;0.80;1.00;;;;;;5114824;28;20182;-61
2021/01/26 00:56:55;;;;;;;35.63;23.23;;;0.80;1.00;;;;;;5115050;28;20611;-61
2021/01/26 00:59:20;;;;;;;36.03;23.57;;;0.80;1.00;;;;;;5114966;28;20175;-61
2021/01/26 01:01:46;;;;;;;38.73;23.67;;;0.80;1.00;;;;;;5114853;28;20189;-61
2021/01/26 01:04:11;;;;;;;40.37;22.93;;;0.80;1.00;;;;;;5114711;28;20179;-61
2021/01/26 01:06:37;;;;;;;35.17;21.20;;;0.80;1.00;;;;;;5114889;28;20209;-60
2021/01/26 01:09:04;;;;;;;38.30;22.17;;;0.70;1.00;;;;;;5113733;28;20334;-62
2021/01/26 01:11:30;;;;;;;33.35;20.80;;;0.70;1.00;;;;;;5114781;28;20183;-62
2021/01/26 01:13:56;;;;;;;37.75;22.63;;;0.80;1.00;;;;;;5114319;28;20621;-62
2021/01/26 01:16:22;;;;;;;39.10;21.73;;;0.80;1.00;;;;;;5114886;28;20266;-61
2021/01/26 01:18:47;;;;;;;39.27;22.60;;;0.80;1.00;;;;;;5114594;28;20571;-62
2021/01/26 01:21:13;;;;;;;36.70;21.50;;;0.80;1.00;;;;;;5114700;28;20171;-62
2021/01/26 01:23:38;;;;;;;34.63;20.90;;;1.00;1.00;;;;;;5113437;28;20632;-62
2021/01/26 01:26:04;;;;;;;35.57;22.07;;;0.70;1.00;;;;;;5113651;28;20183;-62
2021/01/26 01:28:30;;;;;;;39.17;21.53;;;0.60;1.00;;;;;;5114411;28;20187;-62
2021/01/26 01:30:56;;;;;;;33.73;22.77;;;0.70;1.00;;;;;;5114714;28;20190;-62
2021/01/26 01:33:24;;;;;;;41.38;23.67;;;0.60;1.00;;;;;;5113968;28;20238;-62
2021/01/26 01:35:50;;;;;;;39.42;23.05;;;0.60;1.00;;;;;;5114322;28;20567;-65
2021/01/26 01:38:15;;;;;;;40.53;23.00;;;0.70;1.00;;;;;;5113490;28;20262;-65
2021/01/26 01:40:41;;;;;;;33.90;22.87;;;0.70;1.00;;;;;;5114387;28;20316;-65
2021/01/26 01:43:07;;;;;;;37.90;22.87;;;0.80;1.00;;;;;;5114053;28;20256;-65
2021/01/26 01:45:33;;;;;;;38.58;22.35;;;0.80;1.00;;;;;;5114324;28;20179;-65
2021/01/26 01:48:24;;;;;;;32.03;20.50;;;0.90;1.00;;;;;;5114142;28;20175;-65
2021/01/26 01:51:04;;;;;;;35.33;19.45;;;0.80;1.00;;;;;;5113884;28;20534;-65
2021/01/26 01:53:49;;;;;;;34.85;21.05;;;0.90;1.00;;;;;;5112986;28;20203;-65
2021/01/26 01:56:19;;;;;;;35.95;21.17;;;0.70;1.00;;;;;;5114232;28;20164;-65
2021/01/26 01:58:49;;;;;;;37.70;22.85;;;0.60;1.00;;;;;;5114135;28;20174;-65
2021/01/26 02:01:18;;;;;;;32.72;19.65;;;0.70;1.00;;;;;;5113360;28;20275;-65
2021/01/26 02:03:54;;;;;;;37.22;19.45;;;0.70;1.00;;;;;;5114144;28;20230;-65
2021/01/26 02:06:24;;;;;;;40.40;22.42;;;0.70;1.00;;;;;;5114888;28;20183;-67
2021/01/26 02:08:56;;;;;;;84.88;37.78;;;0.70;1.00;;;;;;5114051;28;20627;-67
2021/01/26 02:11:22;;;;;;;36.15;21.80;;;0.70;1.00;;;;;;5114346;28;20175;-67
2021/01/26 02:13:48;;;;;;;35.70;21.47;;;0.60;1.00;;;;;;5113954;28;20225;-67
2021/01/26 02:16:31;;;;;;;36.20;22.27;;;0.50;1.00;;;;;;5114178;28;20822;-66
2021/01/26 02:19:11;;;;;;;36.13;21.27;;;0.50;1.00;;;;;;5114469;28;20179;-62
2021/01/26 02:21:55;;;;;;;39.78;22.05;;;0.50;1.00;;;;;;5113916;28;20174;-61
2021/01/26 02:24:50;;;;;;;42.75;22.65;;;0.50;1.00;;;;;;5113610;28;20560;-61
2021/01/26 02:27:32;;;;;;;36.67;22.52;;;0.40;1.00;;;;;;5114437;28;20190;-66
2021/01/26 02:30:11;;;;;;;39.45;21.77;;;0.40;1.00;;;;;;5113887;28;20186;-64
2021/01/26 02:33:08;;;;;;;37.08;22.40;;;0.40;1.00;;;;;;5113829;28;20207;-64
2021/01/26 02:35:56;;;;;;;29.00;19.05;;;0.40;1.00;;;;;;5113751;28;20717;-64
2021/01/26 02:38:43;;;;;;;37.15;21.25;;;0.50;1.00;;;;;;5084741;28;20256;-64
2021/01/26 02:41:27;;;;;;;37.40;23.13;;;0.40;1.00;;;;;;5113685;28;20183;-64
2021/01/26 02:43:55;;;;;;;49.13;23.73;;;0.40;1.00;;;;;;5113425;28;20258;-64
2021/01/26 02:46:45;;;;;;;33.15;22.55;;;0.60;1.00;;;;;;5113489;28;20347;-65
2021/01/26 02:49:40;;;;;;;36.70;21.67;;;0.60;1.00;;;;;;5105865;28;20459;-65
2021/01/26 02:52:29;;;;;;;39.17;22.85;;;0.80;1.00;;;;;;5085839;28;20229;-66
2021/01/26 02:55:07;;;;;;;43.85;23.98;;;0.80;1.00;;;;;;5112323;28;20182;-66
2021/01/26 02:57:52;;;;;;;36.78;24.17;;;0.90;1.00;;;;;;5113759;28;20258;-66
2021/01/26 03:00:23;;;;;;;45.53;24.90;;;1.20;1.00;;;;;;5113368;28;20506;-64
2021/01/26 03:02:56;;;;;;;43.00;21.67;;;1.30;1.00;;;;;;5113304;28;20202;-63
2021/01/26 03:05:39;;;;;;;39.15;23.48;;;1.40;1.00;;;;;;5113019;28;20187;-63
2021/01/26 03:08:09;;;;;;;40.63;24.73;;;1.60;1.00;;;;;;5113295;28;20613;-66
2021/01/26 03:10:44;;;;;;;39.90;24.40;;;1.70;1.00;;;;;;5115081;28;20563;-66
2021/01/26 03:13:13;;;;;;;43.30;24.15;;;1.80;1.00;;;;;;5115836;28;20210;-66
2021/01/26 03:15:55;;;;;;;39.30;23.48;;;1.90;1.00;;;;;;5116319;28;20174;-65
2021/01/26 03:18:27;;;;;;;40.85;24.55;;;2.00;1.00;;;;;;5117067;28;20213;-66
2021/01/26 03:20:56;;;;;;;45.35;23.40;;;1.90;1.00;;;;;;5115735;28;20172;-66
2021/01/26 03:23:40;;;;;;;44.58;24.67;;;2.00;1.00;;;;;;5116357;28;20175;-66
2021/01/26 03:26:15;;;;;;;40.33;24.30;;;2.10;1.00;;;;;;5116779;28;20583;-64
2021/01/26 03:28:43;;;;;;;39.03;23.27;;;2.10;1.00;;;;;;5116661;28;20178;-66
2021/01/26 03:31:14;;;;;;;42.45;24.92;;;2.00;1.00;;;;;;5116574;28;20183;-67
2021/01/26 03:33:45;;;;;;;39.17;24.83;;;1.90;99.90;;;;;;5116191;28;20706;-68
2021/01/26 03:36:10;;;;;;;45.20;24.25;;;2.00;99.90;;;;;;5116374;28;20207;-68
2021/01/26 03:38:37;;;;;;;43.43;24.60;;;1.70;99.90;;;;;;5116373;28;20207;-65
2021/01/26 03:41:06;;;;;;;44.50;25.35;;;1.80;99.90;;;;;;5116496;27;20478;-67
2021/01/26 03:43:32;;;;;;;43.80;25.23;;;1.80;99.90;;;;;;5115052;28;20230;-68
2021/01/26 03:46:29;;;;;;;36.33;23.10;;;1.70;99.90;;;;;;5115049;28;20616;-66
2021/01/26 03:49:18;;;;;;;37.45;23.75;;;1.60;99.90;;;;;;5110348;28;20191;-63
2021/01/26 03:52:01;;;;;;;43.47;25.00;;;1.80;99.90;;;;;;5116260;28;20179;-66
2021/01/26 03:54:36;;;;;;;36.85;21.90;;;1.80;99.90;;;;;;5116002;28;20519;-64
2021/01/26 03:57:07;;;;;;;40.58;25.75;;;1.50;99.90;;;;;;5116182;28;20296;-62
2021/01/26 04:00:15;;;;;;;38.70;24.00;;;1.30;99.90;;;;;;5114983;28;20296;-61
2021/01/26 04:02:40;;;;;;;36.30;22.42;;;1.30;99.90;;;;;;5043878;27;20238;-62
2021/01/26 04:05:19;;;;;;;41.00;25.47;;;1.30;99.90;;;;;;5114630;28;20197;-62
2021/01/26 04:07:52;;;;;;;41.70;23.55;;;1.20;99.90;;;;;;5115870;28;20179;-61
2021/01/26 04:10:24;;;;;;;45.13;25.27;;;1.20;1.00;;;;;;5115033;28;20194;-68
2021/01/26 04:12:55;;;;;;;45.03;23.48;;;1.20;1.00;;;;;;5116940;28;20218;-68
2021/01/26 04:15:34;;;;;;;40.38;24.27;;;1.50;1.00;;;;;;5115630;28;20274;-68
2021/01/26 04:18:00;;;;;;;40.55;23.77;;;1.60;1.00;;;;;;5114628;28;20175;-68
2021/01/26 04:20:31;;;;;;;37.80;22.40;;;1.40;1.00;;;;;;5114697;28;20261;-68
2021/01/26 04:22:58;;;;;;;40.00;23.30;;;1.50;1.00;;;;;;5115566;28;20461;-66
2021/01/26 04:25:32;;;;;;;40.05;25.60;;;1.50;1.00;;;;;;5115251;28;20635;-65
2021/01/26 04:27:59;;;;;;;38.05;23.85;;;1.50;99.90;;;;;;5115648;28;20202;-66
2021/01/26 04:30:25;;;;;;;39.40;23.52;;;1.40;99.90;;;;;;5115400;28;20171;-66
2021/01/26 04:33:02;;;;;;;39.90;23.67;;;1.60;99.90;;;;;;5114323;28;20211;-66
2021/01/26 04:35:28;;;;;;;45.53;26.13;;;1.70;99.90;;;;;;5114205;28;20190;-66
2021/01/26 04:37:54;;;;;;;35.30;23.17;;;1.60;99.90;;;;;;5115391;28;20171;-66
2021/01/26 04:40:21;;;;;;;43.70;25.63;;;1.60;99.90;;;;;;5115299;28;20176;-62
2021/01/26 04:42:50;;;;;;;44.08;23.55;;;1.30;99.90;;;;;;5115360;27;20186;-65
2021/01/26 04:45:27;;;;;;;44.00;25.33;;;1.00;99.90;;;;;;5113831;28;20175;-67
2021/01/26 04:48:02;;;;;;;41.05;25.70;;;1.00;99.90;;;;;;5115177;28;20269;-66
2021/01/26 04:50:49;;;;;;;38.97;25.52;;;1.00;99.90;;;;;;5118259;28;20186;-67
2021/01/26 04:57:03;;;;;;;37.97;22.52;;;1.00;1.00;;;;;;5116081;28;20224;-65
2021/01/26 04:59:47;;;;;;;42.80;24.95;;;1.20;1.00;;;;;;5114947;28;20262;-62
2021/01/26 05:02:42;;;;;;;46.65;23.73;;;1.30;1.00;;;;;;5114828;28;20652;-63
2021/01/26 05:05:12;;;;;;;41.97;23.60;;;1.30;1.00;;;;;;5114619;28;20181;-68
2021/01/26 05:07:50;;;;;;;41.50;24.17;;;1.50;1.00;;;;;;5113749;28;20509;-68
2021/01/26 05:10:40;;;;;;;39.88;24.67;;;1.60;99.90;;;;;;5114824;28;20183;-68
2021/01/26 05:13:11;;;;;;;36.60;22.73;;;1.80;99.90;;;;;;5114429;28;20230;-68
2021/01/26 05:15:40;;;;;;;42.22;24.65;;;1.80;99.90;;;;;;5114858;28;20450;-68
2021/01/26 05:18:11;;;;;;;42.03;25.20;;;1.70;99.90;;;;;;5114635;28;20587;-68
2021/01/26 05:20:43;;;;;;;41.00;23.50;;;1.80;99.90;;;;;;5113531;28;20183;-68
2021/01/26 05:23:15;;;;;;;43.30;24.88;;;1.80;99.90;;;;;;5114253;28;20257;-66
2021/01/26 05:25:41;;;;;;;41.13;25.77;;;1.90;99.90;;;;;;5113503;28;20183;-66
2021/01/26 05:28:07;;;;;;;44.17;26.20;;;2.00;99.90;;;;;;5113600;28;20186;-66
2021/01/26 05:30:35;;;;;;;41.70;26.40;;;2.10;99.90;;;;;;5114428;28;20171;-68
2021/01/26 05:33:14;;;;;;;39.53;25.27;;;2.10;99.90;;;;;;5113671;28;20199;-67
2021/01/26 05:35:48;;;;;;;45.58;28.50;;;2.20;99.90;;;;;;5113603;28;20676;-66
2021/01/26 05:38:15;;;;;;;42.38;25.27;;;2.20;99.90;;;;;;5114375;28;20186;-65
2021/01/26 05:40:44;;;;;;;43.75;26.27;;;2.20;99.90;;;;;;5114253;28;20186;-65
2021/01/26 05:43:18;;;;;;;44.88;25.92;;;2.10;99.90;;;;;;5114045;28;20171;-65
2021/01/26 05:45:47;;;;;;;44.17;25.35;;;2.30;99.90;;;;;;5114170;28;20178;-65
2021/01/26 05:48:15;;;;;;;43.28;25.67;;;2.30;99.90;;;;;;5114105;28;20567;-65
2021/01/26 05:50:43;;;;;;;47.33;25.85;;;2.40;99.90;;;;;;5114205;28;20200;-65
2021/01/26 05:53:29;;;;;;;45.85;25.85;;;2.40;99.90;;;;;;5113703;28;20215;-65
2021/01/26 05:56:11;;;;;;;41.03;24.30;;;2.40;99.90;;;;;;5114109;28;20175;-65
2021/01/26 05:58:43;;;;;;;36.63;23.98;;;2.40;99.90;;;;;;5114103;28;20677;-66
2021/01/26 06:01:23;;;;;;;42.15;26.77;;;2.50;99.90;;;;;;5114452;28;20174;-61
2021/01/26 06:04:06;;;;;;;41.15;24.55;;;2.60;99.90;;;;;;5113689;28;20528;-61
2021/01/26 06:06:42;;;;;;;39.25;25.55;;;2.70;22.30;;;;;;5113669;28;20237;-61
2021/01/26 06:09:08;;;;;;;48.30;27.60;;;2.70;1.00;;;;;;5113931;28;20204;-61
2021/01/26 06:11:34;;;;;;;37.07;24.80;;;2.80;1.00;;;;;;5113799;28;20210;-61
2021/01/26 06:14:10;;;;;;;42.87;27.60;;;2.70;1.00;;;;;;5113699;28;20706;-61
2021/01/26 06:16:35;;;;;;;37.55;24.65;;;2.70;1.00;;;;;;5113895;28;20480;-61
2021/01/26 06:19:03;;;;;;;40.90;26.77;;;2.60;1.00;;;;;;5113857;28;20200;-61
2021/01/26 06:21:31;;;;;;;43.10;26.60;;;2.50;1.00;;;;;;5113762;28;20210;-61
2021/01/26 06:24:00;;;;;;;40.33;25.85;;;2.50;1.00;;;;;;5113561;28;20183;-61
2021/01/26 06:26:34;;;;;;;42.72;25.80;;;2.40;1.00;;;;;;5114063;28;20175;-61
2021/01/26 06:29:29;;;;;;;40.28;25.00;;;2.30;1.00;;;;;;5114121;28;20535;-61
2021/01/26 06:32:31;;;;;;;42.30;24.77;;;2.20;1.00;;;;;;5114006;28;20272;-62
2021/01/26 06:35:05;;;;;;;42.25;23.67;;;2.10;1.00;;;;;;5113526;28;20256;-61
2021/01/26 06:37:50;;;;;;;35.63;22.88;;;1.70;1.00;;;;;;5113855;28;20616;-62
2021/01/26 06:40:37;;;;;;;40.40;25.95;;;1.60;1.00;;;;;;5113149;28;20496;-68
2021/01/26 06:43:33;;;;;;;41.55;25.15;;;1.50;56.60;;;;;;5113461;28;20342;-69
2021/01/26 06:46:32;;;;;;;43.05;22.98;;;1.60;99.90;;;;;;5124778;28;20255;-68
2021/01/26 06:49:10;;;;;;;43.58;24.98;;;1.50;99.90;;;;;;5125634;28;20213;-68
2021/01/26 06:51:57;;;;;;;35.70;24.23;;;1.40;99.90;;;;;;5123351;28;20186;-68
2021/01/26 06:54:52;;;;;;;45.10;25.38;;;1.40;99.90;;;;;;5122903;28;20303;-68
2021/01/26 06:57:46;;;;;;;44.08;23.73;;;1.30;99.90;;;;;;5121504;28;20236;-68
2021/01/26 07:00:11;;;;;;;39.83;23.83;;;1.20;99.90;;;;;;5124243;28;20164;-67
2021/01/26 07:03:07;;;;;;;43.70;28.90;;;1.20;99.90;;;;;;5125155;28;20205;-67
2021/01/26 07:05:56;;;;;;;39.15;24.15;;;1.20;1.00;;;;;;5122705;28;20263;-67
2021/01/26 07:08:54;;;;;;;46.17;25.73;;;1.30;1.00;;;;;;5120298;28;20306;-68
2021/01/26 07:11:33;;;;;;;42.92;25.25;;;1.10;1.00;;;;;;5121616;28;20227;-68
2021/01/26 07:14:17;;;;;;;43.35;25.45;;;1.00;1.00;;;;;;5120872;28;20210;-67
2021/01/26 07:17:04;;;;;;;41.85;25.05;;;1.10;1.00;;;;;;5122461;28;20172;-68
2021/01/26 07:20:02;;;;;;;43.83;25.63;;;1.20;1.00;;;;;;5121806;28;20524;-70
2021/01/26 07:22:39;;;;;;;47.45;25.58;;;1.30;1.00;;;;;;5116242;28;20171;-71
2021/01/26 07:25:25;;;;;;;37.55;25.00;;;1.30;1.00;;;;;;5116370;27;20175;-69
2021/01/26 07:28:14;;;;;;;41.10;24.52;;;1.30;1.00;;;;;;5115872;28;20182;-66
2021/01/26 07:31:20;;;;;;;39.53;24.65;;;1.30;1.00;;;;;;5117477;28;20518;-64
2021/01/26 07:34:17;;;;;;;40.30;25.90;;;1.20;1.00;;;;;;5087883;28;20241;-63
2021/01/26 07:36:51;;;;;;;41.85;24.42;;;1.10;1.00;;;;;;5111052;28;20623;-64
2021/01/26 07:39:28;;;;;;;43.05;24.60;;;1.00;1.00;;;;;;5115907;28;20467;-63
2021/01/26 07:41:55;;;;;;;45.60;27.52;;;0.80;1.00;;;;;;5115733;28;20194;-64
2021/01/26 07:44:23;;;;;;;51.40;27.73;;;0.70;1.00;;;;;;5116411;28;20179;-63
2021/01/26 07:47:15;;;;;;;46.25;28.35;;;0.60;1.00;;;;;;5116224;28;20588;-60
2021/01/26 07:49:53;;;;;;;42.08;25.05;;;0.80;1.00;;;;;;5116389;28;20186;-63
2021/01/26 07:52:20;;;;;;;44.25;26.92;;;0.90;1.00;;;;;;5119002;27;20178;-63
2021/01/26 07:55:08;;;;;;;41.47;26.83;;;0.90;1.00;;;;;;5116184;28;20175;-63
2021/01/26 07:57:46;;;;;;;46.45;28.05;;;0.90;1.00;;;;;;5115843;28;20507;-60
2021/01/26 08:00:15;;;;;;;47.97;28.20;;;1.00;1.00;;;;;;5115846;28;20181;-61
2021/01/26 08:02:48;;;;;;;51.85;30.65;;;1.10;1.00;;;;;;5115612;28;20191;-61
2021/01/26 08:05:17;;;;;;;47.60;27.42;;;1.20;1.00;;;;;;5115568;28;20197;-61
2021/01/26 08:07:44;;;;;;;52.58;26.40;;;1.30;1.00;;;;;;5123242;27;20226;-58
2021/01/26 08:10:21;;;;;;;46.28;30.55;;;1.50;1.00;;;;;;5115556;28;20204;-58
2021/01/26 08:12:47;;;;;;;45.85;28.15;;;1.70;1.00;;;;;;5115555;28;20202;-58
2021/01/26 08:15:16;;;;;;;62.35;32.70;;;1.80;1.00;;;;;;5115474;28;20183;-58
2021/01/26 08:17:43;;;;;;;46.22;27.92;;;1.80;1.00;;;;;;5115665;27;20175;-60
2021/01/26 08:20:15;;;;;;;52.42;31.45;;;1.90;1.00;;;;;;5115915;28;20191;-58
2021/01/26 08:22:46;;;;;;;47.13;29.63;;;2.00;1.00;;;;;;5115741;28;20229;-59
2021/01/26 08:25:33;;;;;;;54.83;30.80;;;2.00;1.00;;;;;;5115605;28;20179;-61
2021/01/26 08:28:30;;;;;;;55.78;31.48;;;1.90;1.00;;;;;;5115088;28;20206;-63
2021/01/26 08:30:57;;;;;;;49.90;29.33;;;1.90;1.00;;;;;;5115169;28;20199;-62
2021/01/26 08:33:29;;;;;;;54.60;30.50;;;1.70;1.00;;;;;;5115203;28;20214;-62
2021/01/26 08:36:25;;;;;;;51.20;31.98;;;1.80;1.00;;;;;;5114295;28;20236;-62
2021/01/26 08:39:17;;;;;;;55.40;32.22;;;2.00;1.00;;;;;;5113802;28;20509;-62
2021/01/26 08:41:42;;;;;;;43.72;27.33;;;2.00;1.00;;;;;;5078765;27;20574;-63
2021/01/26 08:44:22;;;;;;;57.47;31.23;;;2.10;1.00;;;;;;5100191;28;20605;-63
2021/01/26 08:46:49;;;;;;;47.53;30.20;;;2.50;1.00;;;;;;5095556;28;20631;-62
2021/01/26 08:49:27;;;;;;;54.80;31.63;;;2.50;1.00;;;;;;5095050;28;20211;-63
2021/01/26 08:51:54;;;;;;;55.20;31.02;;;2.60;1.00;;;;;;5099505;28;20529;-61
2021/01/26 08:54:43;;;;;;;56.05;34.55;;;2.70;1.00;;;;;;5105893;28;20195;-59
2021/01/26 08:57:21;;;;;;;56.35;32.85;;;2.60;1.00;;;;;;5115115;27;20274;-60
2021/01/26 08:59:47;;;;;;;51.42;29.67;;;2.50;1.00;;;;;;5111188;28;20266;-61
2021/01/26 09:02:29;;;;;;;47.80;29.70;;;2.50;1.00;;;;;;5094377;28;20213;-60
2021/01/26 09:04:55;;;;;;;52.97;33.10;;;2.60;1.00;;;;;;5093564;28;20274;-61
2021/01/26 09:07:55;;;;;;;50.30;29.43;;;2.80;1.00;;;;;;5093607;28;20214;-62
2021/01/26 09:10:46;;;;;;;46.03;29.20;;;2.80;99.90;;;;;;5094696;28;20175;-62
2021/01/26 09:13:16;;;;;;;56.10;31.85;;;2.80;99.90;;;;;;5096130;28;20356;-62
2021/01/26 09:15:52;;;;;;;44.83;28.55;;;2.80;99.90;;;;;;5093286;28;20176;-60
2021/01/26 09:18:20;;;;;;;44.50;27.13;;;2.80;99.90;;;;;;5094807;28;20187;-61
2021/01/26 09:20:49;;;;;;;47.83;28.33;;;2.90;99.90;;;;;;5094140;28;20167;-60
2021/01/26 09:23:20;;;;;;;41.42;26.48;;;3.10;99.90;;;;;;5094426;28;20207;-62
2021/01/26 09:25:45;;;;;;;41.10;27.90;;;3.10;99.90;;;;;;5094537;28;20194;-62
2021/01/26 09:28:17;;;;;;;43.87;28.60;;;2.80;99.90;;;;;;5094213;28;20620;-60
2021/01/26 09:30:45;;;;;;;53.03;30.77;;;2.80;99.90;;;;;;5093834;28;20211;-60
2021/01/26 09:33:10;;;;;;;42.92;27.17;;;3.00;99.90;;;;;;5093254;28;20649;-59
2021/01/26 09:35:42;;;;;;;45.33;28.40;;;2.90;99.90;;;;;;5110813;28;20193;-60
2021/01/26 09:38:27;;;;;;;46.42;29.88;;;3.10;99.90;;;;;;5114389;28;20179;-59
2021/01/26 09:41:04;;;;;;;41.95;26.60;;;3.10;99.90;;;;;;5120954;27;20186;-60
2021/01/26 09:43:43;;;;;;;44.08;27.20;;;3.00;99.90;;;;;;5093565;28;20183;-64
2021/01/26 09:46:26;;;;;;;47.50;29.67;;;2.90;99.90;;;;;;5094497;28;20508;-60
2021/01/26 09:49:12;;;;;;;46.50;27.75;;;2.90;99.90;;;;;;5094081;28;20639;-62
2021/01/26 09:51:46;;;;;;;47.25;29.35;;;3.00;99.90;;;;;;5093534;28;20241;-62
2021/01/26 09:54:18;;;;;;;40.28;25.92;;;3.30;99.90;;;;;;5093389;28;20715;-62
2021/01/26 09:56:44;;;;;;;45.63;28.20;;;3.30;99.90;;;;;;5093402;28;20172;-59
2021/01/26 09:59:12;;;;;;;41.30;26.05;;;3.40;99.90;;;;;;5093455;28;20172;-59
2021/01/26 10:01:42;;;;;;;45.28;26.75;;;3.30;92.60;;;;;;5093412;28;20175;-60
2021/01/26 10:04:09;;;;;;;42.65;26.90;;;3.30;68.30;;;;;;5093353;28;20228;-59
2021/01/26 10:06:36;;;;;;;40.53;25.08;;;3.20;63.10;;;;;;5106938;28;20205;-61
2021/01/26 10:09:29;;;;;;;33.80;23.17;;;3.20;99.90;;;;;;5113639;28;20236;-59
2021/01/26 10:12:26;;;;;;;37.47;23.42;;;3.30;99.90;;;;;;5111272;28;20506;-59
2021/01/26 10:15:18;;;;;;;39.92;24.55;;;3.20;99.90;;;;;;5113559;28;20657;-59
2021/01/26 10:18:11;;;;;;;41.40;25.27;;;3.30;99.90;;;;;;5113773;28;20576;-59
2021/01/26 10:20:47;;;;;;;34.08;21.85;;;3.50;99.90;;;;;;5111233;28;20224;-60
2021/01/26 10:23:21;;;;;;;41.60;25.05;;;3.40;99.90;;;;;;5117390;28;20197;-60
2021/01/26 10:25:48;;;;;;;37.50;23.30;;;3.50;99.90;;;;;;5118075;28;20192;-60
2021/01/26 10:28:27;;;;;;;36.75;22.33;;;3.80;44.70;;;;;;5117775;28;20206;-61
2021/01/26 10:30:55;;;;;;;33.22;20.73;;;3.70;1.00;;;;;;5118412;28;20513;-60
2021/01/26 10:33:34;;;;;;;39.78;22.90;;;3.70;1.00;;;;;;5117396;28;20234;-59
2021/01/26 10:36:18;;;;;;;35.72;22.33;;;3.70;1.00;;;;;;5097198;28;20639;-62
2021/01/26 10:38:44;;;;;;;30.05;21.25;;;3.70;1.00;;;;;;5097359;28;20186;-60
2021/01/26 10:41:18;;;;;;;34.80;21.98;;;3.90;1.00;;;;;;5113523;27;20269;-60
2021/01/26 10:43:45;;;;;;;32.80;20.20;;;4.00;1.00;;;;;;5117270;28;20546;-60
2021/01/26 10:46:33;;;;;;;29.80;19.85;;;4.20;1.00;;;;;;5117170;28;20210;-60
2021/01/26 10:49:22;;;;;;;31.20;19.63;;;4.50;99.90;;;;;;5117546;28;20269;-60
2021/01/26 10:51:48;;;;;;;29.80;16.30;;;4.50;1.00;;;;;;5117129;28;20179;-60
2021/01/26 10:54:13;;;;;;;25.10;15.63;;;4.40;99.90;;;;;;5116913;28;20251;-61
2021/01/26 10:56:41;;;;;;;29.40;19.03;;;4.30;52.10;;;;;;5117063;28;20187;-61
2021/01/26 10:59:07;;;;;;;24.15;16.95;;;4.30;99.90;;;;;;5117044;28;20595;-60
2021/01/26 11:01:32;;;;;;;25.73;16.67;;;4.50;99.90;;;;;;5116943;28;20201;-61
2021/01/26 11:03:58;;;;;;;27.70;17.67;;;4.40;1.00;;;;;;5116959;28;20638;-64
2021/01/26 11:06:25;;;;;;;25.40;16.97;;;4.40;99.90;;;;;;5099223;28;20597;-62
2021/01/26 11:08:51;;;;;;;27.70;18.10;;;4.30;1.00;;;;;;5116499;27;20767;-64
2021/01/26 11:11:26;;;;;;;26.23;15.73;;;4.40;99.90;;;;;;5116891;27;20619;-64
2021/01/26 11:13:53;;;;;;;22.20;14.10;;;4.20;99.90;;;;;;5122058;27;20210;-65
2021/01/26 11:16:19;;;;;;;28.77;16.15;;;4.00;99.90;;;;;;5119142;27;20182;-65
2021/01/26 11:18:45;;;;;;;23.35;16.00;;;3.90;1.00;;;;;;5120445;27;20505;-63
2021/01/26 11:21:10;;;;;;;26.53;17.17;;;3.90;1.00;;;;;;5117092;28;20182;-63
2021/01/26 11:23:37;;;;;;;27.73;16.10;;;3.90;1.00;;;;;;5114755;28;20171;-67
2021/01/26 11:26:03;;;;;;;23.70;16.13;;;3.80;1.00;;;;;;5109754;28;20196;-65
2021/01/26 11:28:28;;;;;;;25.33;16.13;;;4.00;1.00;;;;;;5096154;28;20182;-63
2021/01/26 11:30:54;;;;;;;25.80;17.27;;;3.90;1.00;;;;;;5105608;28;20441;-65
2021/01/26 11:33:19;;;;;;;26.53;17.70;;;3.80;1.00;;;;;;5115793;28;20315;-64
2021/01/26 11:35:45;;;;;;;25.73;15.77;;;3.90;1.00;;;;;;5115639;28;20195;-64
2021/01/26 11:38:11;;;;;;;28.20;18.10;;;3.90;1.00;;;;;;5114076;28;20266;-64
2021/01/26 11:40:36;;;;;;;28.97;17.70;;;4.00;1.00;;;;;;5110339;28;20179;-64
2021/01/26 11:43:02;;;;;;;28.80;16.87;;;4.10;1.00;;;;;;5109743;27;20262;-67
2021/01/26 11:45:31;;;;;;;29.50;16.95;;;4.10;1.00;;;;;;5105257;28;20215;-65
2021/01/26 11:47:57;;;;;;;29.40;18.23;;;4.20;1.00;;;;;;5104392;28;20183;-64
2021/01/26 11:50:24;;;;;;;25.90;17.80;;;4.30;1.00;;;;;;5104633;28;20498;-67
2021/01/26 11:52:49;;;;;;;21.63;15.98;;;4.20;1.00;;;;;;5106188;27;20556;-65
2021/01/26 11:55:23;;;;;;;27.40;17.20;;;4.20;1.00;;;;;;5124024;27;20219;-65
2021/01/26 11:57:49;;;;;;;22.55;15.00;;;4.30;1.00;;;;;;5115743;27;20195;-64
2021/01/26 12:00:19;;;;;;;28.50;16.30;;;4.30;1.00;;;;;;5104956;28;20180;-65
2021/01/26 12:02:45;;;;;;;28.90;17.13;;;4.30;1.00;;;;;;5104720;27;20206;-65
2021/01/26 12:05:11;;;;;;;19.20;13.60;;;4.70;1.00;;;;;;5102885;28;20179;-65
2021/01/26 12:07:37;;;;;;;20.80;14.38;;;4.80;99.90;;;;;;5102432;28;20972;-65
2021/01/26 12:10:04;;;;;;;20.73;13.77;;;5.10;99.90;;;;;;5107673;27;20285;-65
2021/01/26 12:12:30;;;;;;;23.02;15.15;;;5.10;99.90;;;;;;5103766;28;20749;-61
2021/01/26 12:14:55;;;;;;;22.93;15.23;;;5.40;18.90;;;;;;5105245;28;20277;-62
2021/01/26 12:17:21;;;;;;;18.30;12.17;;;5.60;99.90;;;;;;5108419;28;20208;-63
2021/01/26 12:19:46;;;;;;;18.30;11.60;;;5.40;99.90;;;;;;5115304;28;20218;-62
2021/01/26 12:22:12;;;;;;;22.23;13.57;;;5.30;1.00;;;;;;5115808;28;20231;-64
2021/01/26 12:24:37;;;;;;;18.60;12.20;;;5.40;1.00;;;;;;5114159;28;20183;-63
2021/01/26 12:27:03;;;;;;;18.43;12.03;;;5.30;1.00;;;;;;5115699;28;20262;-63
2021/01/26 12:29:29;;;;;;;15.85;11.20;;;5.40;1.00;;;;;;5115496;28;20238;-64
2021/01/26 12:31:55;;;;;;;15.43;10.87;;;5.30;1.00;;;;;;5115440;28;20183;-63
2021/01/26 12:34:20;;;;;;;17.30;11.03;;;5.30;1.00;;;;;;5114966;28;20289;-63
2021/01/26 12:36:46;;;;;;;22.00;12.80;;;5.30;1.00;;;;;;5114239;28;20191;-63
2021/01/26 12:39:11;;;;;;;18.60;11.87;;;5.20;1.00;;;;;;5115025;28;20227;-64
2021/01/26 12:41:37;;;;;;;16.93;12.20;;;5.30;40.50;;;;;;5115041;28;20175;-62
2021/01/26 12:44:06;;;;;;;17.40;10.77;;;5.30;1.00;;;;;;5115288;27;20612;-65
2021/01/26 12:46:32;;;;;;;17.33;12.00;;;5.30;1.00;;;;;;5124113;27;20572;-67
2021/01/26 12:48:58;;;;;;;16.27;11.65;;;5.10;1.00;;;;;;5125746;27;20624;-66
2021/01/26 12:51:23;;;;;;;13.30;9.90;;;5.10;1.00;;;;;;5114718;28;20183;-66
2021/01/26 12:53:49;;;;;;;18.60;12.37;;;5.30;1.00;;;;;;5126471;27;20209;-66
2021/01/26 12:56:15;;;;;;;23.20;13.70;;;5.40;99.90;;;;;;5135228;27;20196;-65
2021/01/26 12:58:41;;;;;;;15.60;9.83;;;5.70;82.20;;;;;;5133751;27;20459;-66
2021/01/26 13:01:06;;;;;;;16.80;10.73;;;5.90;1.00;;;;;;5132468;27;20495;-63
2021/01/26 13:03:32;;;;;;;20.40;11.17;;;5.80;99.90;;;;;;5114521;28;20195;-65
2021/01/26 13:05:57;;;;;;;12.30;9.57;;;5.90;99.90;;;;;;5114918;28;20171;-65
2021/01/26 13:08:23;;;;;;;13.07;9.13;;;6.10;99.90;;;;;;5114624;28;20211;-66
2021/01/26 13:10:48;;;;;;;13.13;8.50;;;6.10;1.00;;;;;;5114480;28;20336;-66
2021/01/26 13:13:14;;;;;;;10.43;7.93;;;6.00;1.00;;;;;;5114414;28;20282;-65
2021/01/26 13:15:40;;;;;;;9.00;5.93;;;5.90;1.00;;;;;;5112565;28;20179;-64
2021/01/26 13:18:05;;;;;;;10.57;6.37;;;5.80;1.00;;;;;;5106121;28;20230;-66